Time;durP1;ratioP1;P1;durP2;ratioP2;P2;SDS_P1;SDS_P2;PMS_P1;PMS_P2;Temp;Humidity;BMP_temperature;BMP_pressure;BME280_temperature;BME280_humidity;BME280_pressure;Samples;Min_cycle;Max_cycle;Signal;HPM_P1;HPM_P2
2022/04/12 04:46:37;;;;;;;1.20;1.20;;;1.20;99.90;;;;;;5638809;23;20312;-66
2022/04/12 04:49:04;;;;;;;1.27;1.27;;;1.20;99.90;;;;;;4962903;28;20208;-66
2022/04/12 04:51:31;;;;;;;1.02;1.02;;;1.30;99.90;;;;;;4955045;29;20214;-66
2022/04/12 04:53:59;;;;;;;1.50;1.50;;;1.30;99.90;;;;;;4954949;29;20215;-68
2022/04/12 04:56:26;;;;;;;1.40;1.40;;;1.40;99.90;;;;;;4955024;28;20315;-69
2022/04/12 04:58:54;;;;;;;1.52;1.52;;;1.40;99.90;;;;;;4954687;29;20675;-69
2022/04/12 05:01:21;;;;;;;1.73;1.70;;;1.50;99.90;;;;;;4955209;29;20214;-69
2022/04/12 05:03:50;;;;;;;1.50;1.50;;;1.60;99.90;;;;;;4954816;29;20211;-69
2022/04/12 05:06:17;;;;;;;1.50;1.50;;;1.60;99.90;;;;;;4955051;29;20235;-69
2022/04/12 05:08:44;;;;;;;1.58;1.58;;;1.70;99.90;;;;;;4954942;28;20306;-69
2022/04/12 05:11:11;;;;;;;1.85;1.75;;;1.80;99.90;;;;;;4955449;28;20612;-66
2022/04/12 05:13:38;;;;;;;2.28;2.17;;;1.90;99.90;;;;;;4954869;29;20549;-66
2022/04/12 05:16:05;;;;;;;2.30;2.20;;;2.10;99.90;;;;;;4954667;29;20230;-67
2022/04/12 05:18:32;;;;;;;2.55;2.45;;;2.30;99.90;;;;;;4954869;28;20754;-67
2022/04/12 05:21:00;;;;;;;2.85;2.65;;;2.60;99.90;;;;;;4955028;29;20242;-67
2022/04/12 05:23:27;;;;;;;3.67;3.33;;;2.80;99.90;;;;;;4954729;28;20695;-67
2022/04/12 05:25:54;;;;;;;3.55;3.25;;;3.00;99.90;;;;;;4954755;29;20722;-67
2022/04/12 05:28:21;;;;;;;3.35;3.15;;;3.10;99.90;;;;;;4955535;29;20642;-67
2022/04/12 05:30:48;;;;;;;2.97;2.88;;;3.30;99.90;;;;;;4955163;29;20632;-67
2022/04/12 05:33:16;;;;;;;2.75;2.60;;;3.60;99.90;;;;;;4958535;29;20304;-67
2022/04/12 05:35:43;;;;;;;2.90;2.70;;;4.00;99.90;;;;;;4956903;29;20620;-67
2022/04/12 05:38:11;;;;;;;2.90;2.75;;;4.40;99.90;;;;;;4954647;29;20743;-67
2022/04/12 05:40:38;;;;;;;3.13;2.92;;;4.70;99.90;;;;;;4954495;28;20645;-67
2022/04/12 05:43:05;;;;;;;2.95;2.75;;;5.10;99.90;;;;;;4954806;28;20204;-67
2022/04/12 05:45:31;;;;;;;4.05;3.42;;;5.40;99.90;;;;;;4954691;29;20255;-67
2022/04/12 05:47:58;;;;;;;2.83;2.63;;;5.80;99.90;;;;;;4954995;28;20733;-67
2022/04/12 05:50:27;;;;;;;4.68;3.20;;;6.30;99.90;;;;;;4958185;28;20299;-67
2022/04/12 05:52:54;;;;;;;3.25;2.92;;;7.00;99.90;;;;;;4958093;28;20206;-67
2022/04/12 05:55:24;;;;;;;2.60;2.45;;;7.40;99.90;;;;;;4958222;29;20200;-67
2022/04/12 05:57:52;;;;;;;2.92;2.72;;;7.80;99.90;;;;;;4958139;29;20224;-67
2022/04/12 06:00:20;;;;;;;3.33;3.03;;;8.40;99.90;;;;;;4957788;29;20328;-67
2022/04/12 06:02:47;;;;;;;2.70;2.50;;;9.20;99.90;;;;;;4958290;29;20204;-67
2022/04/12 06:05:14;;;;;;;2.78;2.58;;;10.20;99.90;;;;;;4957976;29;20200;-67
2022/04/12 06:07:43;;;;;;;2.45;2.35;;;11.30;99.90;;;;;;4958775;28;20291;-67
2022/04/12 06:10:11;;;;;;;2.63;2.15;;;12.80;98.50;;;;;;4961302;29;20215;-67
2022/04/12 06:12:40;;;;;;;2.67;2.47;;;14.10;72.90;;;;;;4961492;29;20702;-67
2022/04/12 06:15:08;;;;;;;2.90;2.47;;;15.30;55.80;;;;;;4962585;29;20238;-68
2022/04/12 06:17:37;;;;;;;3.08;2.80;;;16.40;53.50;;;;;;4962358;28;20228;-68
2022/04/12 06:20:06;;;;;;;2.50;2.40;;;17.60;48.10;;;;;;4962938;28;20287;-68
2022/04/12 06:22:34;;;;;;;2.28;2.10;;;18.80;45.80;;;;;;4962014;28;20314;-68
2022/04/12 06:25:02;;;;;;;2.80;2.60;;;20.10;41.30;;;;;;4962328;28;20210;-67
2022/04/12 06:27:31;;;;;;;2.33;2.13;;;21.10;38.50;;;;;;4961146;29;20722;-67
2022/04/12 06:30:05;;;;;;;4.72;2.70;;;21.60;37.20;;;;;;4963064;28;20250;-68
2022/04/12 06:32:32;;;;;;;2.60;2.40;;;21.50;35.00;;;;;;4962032;29;20199;-68
2022/04/12 06:35:00;;;;;;;2.88;2.60;;;21.30;34.20;;;;;;4961552;28;20269;-68
2022/04/12 06:37:28;;;;;;;2.75;2.55;;;20.80;35.40;;;;;;4961056;29;20227;-68
2022/04/12 06:39:57;;;;;;;3.00;2.75;;;20.40;35.90;;;;;;4962256;28;20235;-67
2022/04/12 06:42:24;;;;;;;2.83;2.63;;;20.50;34.70;;;;;;4961891;28;20200;-67
2022/04/12 06:44:52;;;;;;;4.57;2.45;;;20.10;34.70;;;;;;4961666;28;20211;-67
2022/04/12 06:47:21;;;;;;;4.53;3.25;;;19.90;36.40;;;;;;4962077;28;20310;-67
2022/04/12 06:49:50;;;;;;;3.67;2.80;;;19.90;36.10;;;;;;4963241;28;20242;-67
2022/04/12 06:52:20;;;;;;;4.40;3.00;;;20.20;37.30;;;;;;4962326;28;20200;-67
2022/04/12 06:54:47;;;;;;;3.60;2.97;;;20.40;35.20;;;;;;4962729;28;20639;-67
2022/04/12 06:57:16;;;;;;;4.47;2.92;;;20.30;36.00;;;;;;4961192;28;20762;-68
2022/04/12 06:59:44;;;;;;;4.03;2.53;;;20.30;36.10;;;;;;4961801;28;20207;-68
2022/04/12 07:02:12;;;;;;;3.75;2.22;;;20.10;35.70;;;;;;4961994;28;20614;-68
2022/04/12 07:04:41;;;;;;;5.93;2.20;;;20.10;36.20;;;;;;4961534;29;20274;-68
2022/04/12 07:07:08;;;;;;;2.80;2.28;;;19.80;36.60;;;;;;4962994;28;20645;-68
2022/04/12 07:09:35;;;;;;;3.33;2.30;;;19.80;37.00;;;;;;4962651;29;20200;-68
2022/04/12 07:12:03;;;;;;;3.40;2.35;;;19.90;37.00;;;;;;4960328;29;20213;-68
2022/04/12 07:14:32;;;;;;;2.25;2.13;;;19.80;37.40;;;;;;4960602;29;20295;-68
2022/04/12 07:16:59;;;;;;;2.15;2.05;;;19.90;37.10;;;;;;4962031;29;20223;-68
2022/04/12 07:19:27;;;;;;;3.72;1.92;;;20.50;37.60;;;;;;4958955;29;20230;-68
2022/04/12 07:21:56;;;;;;;2.28;2.17;;;21.10;36.40;;;;;;4961606;29;20211;-68
2022/04/12 07:24:23;;;;;;;2.72;2.53;;;21.60;35.00;;;;;;4960878;28;20207;-69
2022/04/12 07:26:51;;;;;;;3.78;2.22;;;22.00;35.10;;;;;;4959986;28;20287;-70
2022/04/12 07:29:18;;;;;;;2.20;1.90;;;22.00;33.80;;;;;;4961088;29;20227;-70
2022/04/12 07:31:46;;;;;;;2.50;2.30;;;22.10;34.00;;;;;;4959741;28;20208;-69
2022/04/12 07:34:14;;;;;;;2.55;2.30;;;22.10;34.40;;;;;;4959509;28;20230;-69
2022/04/12 07:36:47;;;;;;;3.72;2.45;;;22.30;34.70;;;;;;4960286;29;20594;-70
2022/04/12 07:39:16;;;;;;;3.65;2.47;;;22.50;34.20;;;;;;4959508;28;20640;-70
2022/04/12 07:41:45;;;;;;;2.90;2.50;;;22.70;34.30;;;;;;4960053;29;20230;-70
2022/04/12 07:44:11;;;;;;;2.55;2.20;;;22.90;34.00;;;;;;4956579;29;20203;-67
2022/04/12 07:46:38;;;;;;;2.50;2.30;;;23.20;33.40;;;;;;4956047;29;20318;-67
2022/04/12 07:49:05;;;;;;;2.78;2.22;;;23.50;33.20;;;;;;4955978;29;20298;-67
2022/04/12 07:51:32;;;;;;;3.08;2.13;;;23.60;32.50;;;;;;4959469;28;20298;-67
2022/04/12 07:54:01;;;;;;;5.22;2.58;;;23.70;32.50;;;;;;4960154;28;20207;-67
2022/04/12 07:56:29;;;;;;;4.82;2.22;;;23.80;33.00;;;;;;4959237;29;20220;-67
2022/04/12 07:58:57;;;;;;;3.63;2.15;;;23.80;32.90;;;;;;4960242;29;20211;-67
2022/04/12 08:01:24;;;;;;;2.40;2.08;;;24.10;32.10;;;;;;4959692;29;20207;-67
2022/04/12 08:03:51;;;;;;;4.75;1.60;;;24.10;32.30;;;;;;4960584;28;20234;-67
2022/04/12 08:06:19;;;;;;;1.92;1.70;;;24.20;32.30;;;;;;4959091;29;20227;-67
2022/04/12 08:08:48;;;;;;;2.97;1.60;;;24.20;32.90;;;;;;4958559;28;20231;-66
2022/04/12 08:11:15;;;;;;;1.60;1.50;;;24.30;32.30;;;;;;4958836;28;20204;-67
2022/04/12 08:13:45;;;;;;;1.45;1.35;;;24.50;32.00;;;;;;4960177;28;20247;-68
2022/04/12 08:16:15;;;;;;;1.83;1.65;;;24.80;32.70;;;;;;4960721;29;20714;-67
2022/04/12 08:18:43;;;;;;;3.28;1.92;;;25.20;31.60;;;;;;4960921;29;20607;-67
2022/04/12 08:21:10;;;;;;;1.67;1.40;;;25.00;31.10;;;;;;4960227;28;20599;-67
2022/04/12 08:23:37;;;;;;;2.05;1.40;;;24.70;31.90;;;;;;4958974;29;20200;-67
2022/04/12 08:26:05;;;;;;;1.60;1.50;;;24.20;31.80;;;;;;4959265;29;20659;-67
2022/04/12 08:28:33;;;;;;;2.30;1.77;;;23.60;32.40;;;;;;4959142;29;20204;-67
2022/04/12 08:31:02;;;;;;;3.63;1.77;;;22.70;32.70;;;;;;4959679;28;20207;-68
2022/04/12 08:33:29;;;;;;;1.40;1.40;;;21.70;33.50;;;;;;4955960;29;20207;-69
2022/04/12 08:35:56;;;;;;;1.48;1.30;;;21.10;34.70;;;;;;4959027;29;20734;-69
2022/04/12 08:38:23;;;;;;;1.40;1.38;;;20.50;35.30;;;;;;4960242;28;20207;-70
2022/04/12 08:40:54;;;;;;;1.20;1.20;;;19.90;35.50;;;;;;4960450;28;20203;-69
2022/04/12 08:43:23;;;;;;;1.50;1.40;;;19.30;36.70;;;;;;4955546;29;20279;-69
2022/04/12 08:45:50;;;;;;;1.73;1.63;;;18.80;36.30;;;;;;4955982;29;20207;-69
2022/04/12 08:48:18;;;;;;;1.70;1.40;;;18.30;37.80;;;;;;4955399;29;20587;-69
2022/04/12 08:50:46;;;;;;;2.40;1.10;;;17.90;38.60;;;;;;4955718;28;20212;-69
2022/04/12 08:53:13;;;;;;;2.75;1.70;;;17.60;40.30;;;;;;4955408;29;20242;-69
2022/04/12 08:55:41;;;;;;;2.30;1.92;;;17.30;41.50;;;;;;4955289;29;20203;-69
2022/04/12 08:58:08;;;;;;;2.35;1.63;;;17.00;42.50;;;;;;4955334;29;20219;-69
2022/04/12 09:00:35;;;;;;;1.20;1.20;;;16.90;43.30;;;;;;4955679;29;20213;-69
2022/04/12 09:03:03;;;;;;;1.00;1.00;;;17.00;44.00;;;;;;4955219;29;20200;-69
2022/04/12 09:05:32;;;;;;;1.20;1.20;;;17.10;42.90;;;;;;4955351;28;20296;-70
2022/04/12 09:07:59;;;;;;;0.98;0.98;;;17.00;42.50;;;;;;4954941;29;20235;-70
2022/04/12 09:10:34;;;;;;;1.02;0.90;;;17.00;42.70;;;;;;4957352;29;20230;-70
2022/04/12 09:13:10;;;;;;;1.00;1.00;;;16.90;42.30;;;;;;4954906;28;20607;-70
2022/04/12 09:15:43;;;;;;;1.25;1.00;;;17.00;42.70;;;;;;4955191;29;20191;-69
2022/04/12 09:18:10;;;;;;;1.10;1.10;;;17.00;42.00;;;;;;4954708;28;20703;-69
2022/04/12 09:20:39;;;;;;;1.10;1.10;;;16.90;42.20;;;;;;4955104;29;20211;-69
2022/04/12 09:23:15;;;;;;;1.27;1.17;;;17.00;42.80;;;;;;4955773;28;20210;-69
2022/04/12 09:25:53;;;;;;;1.17;1.10;;;17.00;43.50;;;;;;4959292;29;20252;-69
2022/04/12 09:28:21;;;;;;;1.13;1.13;;;17.00;43.90;;;;;;4958777;29;20219;-69
2022/04/12 09:30:47;;;;;;;1.10;1.10;;;17.00;43.80;;;;;;4958449;29;20664;-69
2022/04/12 09:33:35;;;;;;;1.05;1.00;;;17.10;45.80;;;;;;4958413;29;20693;-68
2022/04/12 09:36:04;;;;;;;0.98;0.98;;;17.40;44.50;;;;;;4958543;28;20204;-68
2022/04/12 09:38:32;;;;;;;0.70;0.70;;;17.50;42.10;;;;;;4959014;29;20291;-69
2022/04/12 09:41:20;;;;;;;1.35;0.85;;;17.60;42.00;;;;;;4958934;29;20208;-69
2022/04/12 09:43:59;;;;;;;1.33;1.08;;;17.70;42.20;;;;;;4958594;28;20640;-70
2022/04/12 09:46:27;;;;;;;0.75;0.75;;;17.70;41.40;;;;;;4958256;29;20282;-69
2022/04/12 09:48:54;;;;;;;1.00;1.00;;;17.80;41.90;;;;;;4958432;29;20218;-70
2022/04/12 09:51:24;;;;;;;1.13;1.02;;;17.90;40.30;;;;;;4958653;29;20204;-70
2022/04/12 09:53:51;;;;;;;1.65;0.70;;;17.80;40.00;;;;;;4959228;29;20291;-70
2022/04/12 09:56:21;;;;;;;0.60;0.60;;;17.70;39.40;;;;;;4958549;28;20232;-69
2022/04/12 09:58:53;;;;;;;0.50;0.50;;;17.70;39.70;;;;;;4958207;29;20574;-70
2022/04/12 10:01:22;;;;;;;0.70;0.70;;;17.80;39.80;;;;;;4958330;29;20203;-70
2022/04/12 10:03:52;;;;;;;0.82;0.82;;;17.70;38.80;;;;;;4958193;29;20258;-70
2022/04/12 10:06:21;;;;;;;0.70;0.70;;;17.70;38.60;;;;;;4958064;29;20229;-70
2022/04/12 10:08:53;;;;;;;1.33;0.60;;;17.70;33.20;;;;;;4958126;29;20570;-70
2022/04/12 10:11:21;;;;;;;0.65;0.65;;;17.80;29.50;;;;;;4959107;29;20242;-71
2022/04/12 10:13:48;;;;;;;0.90;0.50;;;17.80;29.00;;;;;;4958477;29;20226;-71
2022/04/12 10:16:16;;;;;;;0.50;0.50;;;17.90;29.10;;;;;;4958029;28;20250;-71
2022/04/12 10:18:43;;;;;;;0.52;0.50;;;18.00;27.70;;;;;;4957961;29;20291;-71
2022/04/12 10:21:12;;;;;;;0.50;0.50;;;18.10;28.00;;;;;;4958032;29;20203;-70
2022/04/12 10:23:40;;;;;;;0.77;0.60;;;18.20;27.10;;;;;;4957507;29;20200;-70
2022/04/12 10:26:11;;;;;;;0.40;0.40;;;18.30;27.70;;;;;;4957741;28;20582;-69
2022/04/12 10:28:39;;;;;;;0.47;0.47;;;18.40;28.50;;;;;;4957478;29;20219;-70
2022/04/12 10:31:24;;;;;;;1.02;0.50;;;18.50;28.40;;;;;;4957449;29;20208;-70
2022/04/12 10:34:05;;;;;;;0.47;0.47;;;18.60;26.90;;;;;;4957526;28;20243;-70
2022/04/12 10:36:55;;;;;;;0.52;0.52;;;18.60;26.90;;;;;;4957561;29;20603;-70
2022/04/12 10:39:26;;;;;;;0.40;0.40;;;18.50;26.80;;;;;;4957464;29;20227;-70
2022/04/12 10:41:56;;;;;;;0.60;0.60;;;18.60;26.90;;;;;;4957912;29;20198;-70
2022/04/12 10:44:25;;;;;;;0.73;0.70;;;18.60;26.50;;;;;;4958735;28;20199;-70
2022/04/12 10:46:52;;;;;;;0.50;0.50;;;18.70;26.60;;;;;;4957621;29;20227;-70
2022/04/12 10:49:20;;;;;;;0.50;0.50;;;18.70;26.80;;;;;;4957114;29;20790;-69
2022/04/12 10:51:55;;;;;;;0.43;0.43;;;18.60;26.80;;;;;;4957009;29;20204;-69
2022/04/12 10:54:30;;;;;;;0.52;0.50;;;18.60;27.10;;;;;;4957248;29;20201;-69
2022/04/12 10:57:29;;;;;;;0.50;0.50;;;18.60;27.50;;;;;;4956816;29;20223;-70
2022/04/12 11:00:03;;;;;;;0.50;0.50;;;18.60;28.50;;;;;;4897875;29;20244;-70
2022/04/12 11:02:36;;;;;;;0.65;0.55;;;18.60;29.10;;;;;;4946947;28;20217;-69
2022/04/12 11:05:03;;;;;;;0.60;0.60;;;18.70;29.20;;;;;;4957178;29;20198;-69
2022/04/12 11:07:36;;;;;;;0.57;0.50;;;18.80;30.30;;;;;;4956839;28;20331;-69
2022/04/12 11:10:30;;;;;;;0.73;0.70;;;18.80;29.70;;;;;;4956985;28;20203;-69
2022/04/12 11:13:10;;;;;;;0.73;0.73;;;18.90;30.30;;;;;;4957112;29;20196;-69
2022/04/12 11:15:38;;;;;;;0.60;0.60;;;18.90;30.60;;;;;;4956534;29;20562;-69
2022/04/12 11:18:10;;;;;;;0.75;0.75;;;19.00;31.00;;;;;;4956978;28;20219;-69
2022/04/12 11:20:38;;;;;;;0.90;0.90;;;19.00;31.40;;;;;;4956724;29;20632;-69
2022/04/12 11:23:08;;;;;;;0.60;0.60;;;18.90;31.20;;;;;;4957131;29;20204;-70
2022/04/12 11:25:37;;;;;;;0.70;0.70;;;18.90;31.50;;;;;;4957199;28;20192;-69
2022/04/12 11:28:04;;;;;;;0.50;0.50;;;19.00;32.20;;;;;;4956611;29;20227;-69
2022/04/12 11:30:32;;;;;;;0.80;0.60;;;19.20;31.70;;;;;;4956660;29;20211;-69
2022/04/12 11:32:59;;;;;;;0.82;0.52;;;19.30;31.90;;;;;;4956602;28;20290;-69
2022/04/12 11:35:26;;;;;;;0.95;0.70;;;19.40;31.60;;;;;;4956390;28;20663;-69
2022/04/12 11:37:54;;;;;;;0.60;0.60;;;19.50;31.70;;;;;;4956450;29;20225;-69
2022/04/12 11:40:20;;;;;;;0.50;0.50;;;19.50;32.70;;;;;;4956632;28;20254;-70
2022/04/12 11:42:48;;;;;;;0.93;0.75;;;19.70;32.80;;;;;;4956650;28;20210;-69
2022/04/12 11:45:15;;;;;;;0.70;0.70;;;19.80;32.70;;;;;;4956294;28;20229;-69
2022/04/12 11:47:45;;;;;;;0.47;0.47;;;19.80;32.30;;;;;;4955361;29;20716;-69
2022/04/12 11:50:16;;;;;;;1.05;0.90;;;19.90;32.70;;;;;;4956099;28;20215;-69
2022/04/12 11:52:44;;;;;;;0.60;0.60;;;20.00;33.20;;;;;;4956118;29;20199;-69
2022/04/12 11:55:12;;;;;;;0.50;0.50;;;20.10;33.30;;;;;;4955813;29;20679;-69
2022/04/12 11:57:39;;;;;;;0.70;0.70;;;20.20;34.00;;;;;;4955707;28;20707;-69
2022/04/12 12:00:08;;;;;;;0.70;0.70;;;20.10;33.00;;;;;;4956029;29;20229;-70
2022/04/12 12:02:37;;;;;;;0.70;0.70;;;20.10;33.70;;;;;;4955995;28;20254;-70
2022/04/12 12:05:08;;;;;;;0.68;0.68;;;20.10;33.90;;;;;;4956019;29;20594;-70
2022/04/12 12:07:36;;;;;;;1.13;0.70;;;20.10;33.50;;;;;;4955712;29;20290;-70
2022/04/12 12:10:05;;;;;;;0.65;0.65;;;20.10;33.60;;;;;;4955962;29;20294;-70
2022/04/12 12:12:33;;;;;;;0.60;0.60;;;20.10;33.80;;;;;;4955805;29;20199;-70
2022/04/12 12:15:12;;;;;;;0.50;0.50;;;20.20;34.40;;;;;;4955685;29;20214;-70
2022/04/12 12:17:40;;;;;;;1.05;0.95;;;20.30;34.60;;;;;;4955651;29;20215;-70
2022/04/12 12:20:09;;;;;;;0.80;0.80;;;20.50;34.50;;;;;;4955315;29;20299;-70
2022/04/12 12:22:37;;;;;;;0.77;0.77;;;20.40;34.00;;;;;;4956495;28;20207;-70
2022/04/12 12:25:05;;;;;;;0.70;0.70;;;20.40;34.40;;;;;;4955603;29;20547;-70
2022/04/12 12:27:34;;;;;;;0.90;0.82;;;20.40;34.60;;;;;;4955469;29;20227;-70
2022/04/12 12:30:06;;;;;;;1.40;0.88;;;20.40;34.80;;;;;;4955547;29;20293;-70
2022/04/12 12:32:34;;;;;;;0.85;0.85;;;20.50;34.90;;;;;;4955378;28;20635;-69
2022/04/12 12:35:06;;;;;;;0.57;0.57;;;20.50;35.10;;;;;;4955649;29;20328;-70
2022/04/12 12:37:35;;;;;;;0.60;0.60;;;20.50;35.60;;;;;;4955398;29;20251;-70
2022/04/12 12:40:02;;;;;;;1.15;1.15;;;20.50;35.80;;;;;;4956144;28;20211;-70
2022/04/12 12:42:37;;;;;;;1.02;0.93;;;20.50;36.00;;;;;;4955084;29;20568;-70
2022/04/12 12:45:12;;;;;;;1.52;0.80;;;20.50;37.10;;;;;;4955360;29;20217;-70
2022/04/12 12:47:40;;;;;;;0.88;0.80;;;20.50;37.30;;;;;;4955090;29;20233;-70
2022/04/12 12:50:09;;;;;;;0.95;0.90;;;20.60;37.50;;;;;;4954987;29;20207;-71
2022/04/12 12:52:38;;;;;;;1.10;0.75;;;20.60;37.40;;;;;;4955013;28;20555;-70
2022/04/12 12:55:08;;;;;;;0.98;0.98;;;20.70;36.40;;;;;;4954910;29;20195;-69
2022/04/12 12:57:39;;;;;;;1.08;1.00;;;20.50;36.70;;;;;;4955166;28;20254;-69
2022/04/12 13:00:08;;;;;;;0.82;0.73;;;20.40;37.10;;;;;;4959293;29;20206;-71
2022/04/12 13:02:35;;;;;;;0.80;0.80;;;20.40;37.20;;;;;;4959101;29;20203;-70
2022/04/12 13:05:04;;;;;;;0.82;0.70;;;20.30;37.50;;;;;;4959155;29;20215;-70
2022/04/12 13:07:32;;;;;;;0.73;0.73;;;20.20;37.70;;;;;;4958612;28;20720;-70
2022/04/12 13:10:09;;;;;;;0.70;0.70;;;20.30;39.00;;;;;;4958814;28;20664;-70
2022/04/12 13:12:37;;;;;;;0.80;0.80;;;20.30;38.90;;;;;;4958805;28;20187;-70
2022/04/12 13:15:04;;;;;;;0.95;0.90;;;20.40;39.50;;;;;;4958967;29;20570;-70
2022/04/12 13:17:31;;;;;;;1.05;1.00;;;20.40;38.90;;;;;;4958867;29;20397;-70
2022/04/12 13:19:58;;;;;;;0.77;0.77;;;20.40;38.50;;;;;;4958683;28;20268;-70
2022/04/12 13:22:26;;;;;;;0.80;0.80;;;20.40;39.00;;;;;;4958891;29;20210;-70
2022/04/12 13:24:53;;;;;;;0.85;0.70;;;20.30;38.80;;;;;;4958865;28;20194;-70
2022/04/12 13:27:22;;;;;;;0.77;0.77;;;20.40;39.40;;;;;;4958723;29;20314;-70
2022/04/12 13:29:48;;;;;;;1.10;1.10;;;20.40;39.80;;;;;;4959423;29;20231;-71
2022/04/12 13:32:15;;;;;;;0.88;0.88;;;20.40;40.20;;;;;;4958595;29;20214;-70
2022/04/12 13:34:42;;;;;;;1.90;1.13;;;20.50;40.50;;;;;;4958260;29;20235;-70
2022/04/12 13:37:09;;;;;;;1.02;1.02;;;20.50;40.00;;;;;;4958206;29;20677;-70
2022/04/12 13:39:36;;;;;;;0.82;0.80;;;20.50;40.10;;;;;;4958523;29;20275;-70
2022/04/12 13:42:05;;;;;;;0.90;0.90;;;20.60;39.90;;;;;;4958521;29;20213;-70
2022/04/12 13:44:34;;;;;;;0.90;0.90;;;20.50;39.80;;;;;;4958196;29;20691;-71
2022/04/12 13:47:01;;;;;;;0.70;0.70;;;20.50;40.70;;;;;;4958283;29;20233;-70
2022/04/12 13:49:29;;;;;;;0.93;0.93;;;20.50;41.50;;;;;;4958215;29;20266;-70
2022/04/12 13:51:56;;;;;;;0.90;0.90;;;20.60;41.30;;;;;;4958488;29;20192;-70
2022/04/12 13:54:24;;;;;;;1.10;1.10;;;20.60;41.00;;;;;;4958069;29;20207;-71
2022/04/12 13:56:51;;;;;;;1.13;1.10;;;20.50;40.90;;;;;;4958175;28;20699;-72
2022/04/12 13:59:18;;;;;;;0.88;0.88;;;20.50;40.70;;;;;;4958242;29;20289;-72
2022/04/12 14:01:47;;;;;;;1.33;0.98;;;20.60;41.40;;;;;;4959044;29;20210;-71
2022/04/12 14:04:14;;;;;;;1.50;0.70;;;20.70;41.40;;;;;;4958328;29;20266;-71
2022/04/12 14:06:43;;;;;;;1.40;1.00;;;20.70;41.30;;;;;;4960495;29;20312;-71
2022/04/12 14:09:10;;;;;;;0.80;0.80;;;20.70;40.60;;;;;;4958396;28;20224;-72
2022/04/12 14:11:37;;;;;;;0.70;0.68;;;20.70;41.50;;;;;;4960193;28;20578;-72
2022/04/12 14:14:07;;;;;;;0.90;0.90;;;20.80;41.20;;;;;;4959359;29;20399;-72
2022/04/12 14:16:35;;;;;;;0.80;0.80;;;20.80;40.80;;;;;;4958035;28;20350;-71
2022/04/12 14:19:04;;;;;;;0.70;0.70;;;20.90;40.10;;;;;;4957536;28;20290;-71
2022/04/12 14:21:31;;;;;;;0.80;0.80;;;20.90;40.00;;;;;;4958079;29;20282;-70
2022/04/12 14:24:00;;;;;;;1.25;1.10;;;21.00;40.80;;;;;;4957871;29;20208;-70
2022/04/12 14:26:27;;;;;;;0.70;0.70;;;20.90;41.10;;;;;;4959549;28;20223;-70
2022/04/12 14:28:54;;;;;;;1.08;1.00;;;21.00;41.80;;;;;;4960441;29;20326;-70
2022/04/12 14:31:21;;;;;;;1.00;1.00;;;21.10;41.20;;;;;;4959193;28;20286;-70
2022/04/12 14:33:49;;;;;;;0.80;0.80;;;21.00;41.20;;;;;;4957511;29;20214;-71
2022/04/12 14:36:18;;;;;;;0.98;0.98;;;21.00;41.50;;;;;;4957851;28;20298;-71
2022/04/12 14:38:46;;;;;;;1.10;0.98;;;20.90;41.50;;;;;;4957227;28;20207;-71
2022/04/12 14:41:13;;;;;;;2.28;1.10;;;21.00;41.90;;;;;;4957476;28;20211;-70
2022/04/12 14:43:40;;;;;;;1.10;1.10;;;20.90;42.50;;;;;;4957601;29;20203;-70
2022/04/12 14:46:07;;;;;;;1.42;1.13;;;20.90;42.40;;;;;;4958631;29;20234;-71
2022/04/12 14:48:34;;;;;;;0.75;0.75;;;20.90;42.40;;;;;;4961243;29;20282;-71
2022/04/12 14:51:02;;;;;;;0.75;0.75;;;21.00;42.90;;;;;;4960481;29;20210;-71
2022/04/12 14:53:31;;;;;;;1.75;1.30;;;21.10;43.10;;;;;;4958954;29;20231;-71
2022/04/12 14:55:58;;;;;;;1.10;1.08;;;21.00;41.80;;;;;;4960275;28;20238;-71
2022/04/12 14:58:30;;;;;;;0.70;0.70;;;21.00;41.50;;;;;;4956899;29;20196;-71
2022/04/12 15:00:57;;;;;;;1.23;1.10;;;21.00;42.10;;;;;;4957200;28;20198;-71
2022/04/12 15:03:24;;;;;;;1.17;1.05;;;20.90;41.80;;;;;;4957267;29;20212;-70
2022/04/12 15:05:51;;;;;;;1.10;1.10;;;20.90;42.30;;;;;;4957366;29;20214;-70
2022/04/12 15:08:18;;;;;;;0.93;0.90;;;20.90;42.30;;;;;;4957137;29;20223;-70
2022/04/12 15:10:46;;;;;;;1.10;0.90;;;20.90;42.90;;;;;;4956762;29;20294;-69
2022/04/12 15:13:13;;;;;;;1.15;1.15;;;20.90;43.00;;;;;;4957081;29;20223;-70
2022/04/12 15:15:43;;;;;;;0.80;0.80;;;20.90;42.70;;;;;;4956626;29;20204;-70
2022/04/12 15:18:10;;;;;;;0.80;0.80;;;20.90;43.40;;;;;;4956931;29;20226;-71
2022/04/12 15:20:37;;;;;;;1.95;0.85;;;20.90;43.50;;;;;;4955844;28;20206;-71
2022/04/12 15:23:04;;;;;;;0.63;0.63;;;20.90;43.90;;;;;;4957002;29;20209;-71
2022/04/12 15:25:31;;;;;;;1.52;0.88;;;20.90;43.90;;;;;;4956356;28;20203;-72
2022/04/12 15:27:59;;;;;;;0.93;0.93;;;20.90;44.00;;;;;;4956670;29;20223;-71
2022/04/12 15:30:27;;;;;;;3.80;1.50;;;20.90;44.40;;;;;;4956648;29;20203;-70
2022/04/12 15:32:53;;;;;;;1.70;1.60;;;20.70;43.60;;;;;;4956194;29;20698;-70
2022/04/12 15:35:20;;;;;;;1.75;1.00;;;20.60;44.00;;;;;;4956183;29;20310;-72
2022/04/12 15:37:49;;;;;;;0.93;0.93;;;20.60;45.20;;;;;;4956408;29;20314;-70
2022/04/12 15:40:18;;;;;;;1.60;1.20;;;20.60;44.40;;;;;;4957305;29;20611;-70
2022/04/12 15:42:46;;;;;;;0.90;0.90;;;20.50;44.70;;;;;;4957044;29;20610;-71
2022/04/12 15:45:15;;;;;;;1.00;1.00;;;20.40;45.30;;;;;;4957104;29;20200;-72
2022/04/12 15:47:42;;;;;;;0.90;0.90;;;20.40;45.60;;;;;;4956513;28;20719;-72
2022/04/12 15:50:09;;;;;;;0.90;0.90;;;20.40;45.90;;;;;;4956222;29;20584;-72
2022/04/12 15:52:36;;;;;;;2.03;1.20;;;20.40;45.90;;;;;;4956268;29;20203;-70
2022/04/12 15:55:04;;;;;;;1.48;1.38;;;20.30;46.00;;;;;;4956421;29;20536;-71
2022/04/12 15:57:30;;;;;;;1.30;1.30;;;20.20;46.30;;;;;;4955771;28;20223;-70
2022/04/12 15:59:57;;;;;;;1.42;1.40;;;20.20;46.70;;;;;;4956678;29;20210;-72
2022/04/12 16:02:26;;;;;;;1.70;1.60;;;20.10;47.20;;;;;;4955949;29;20230;-71
2022/04/12 16:04:52;;;;;;;1.90;1.70;;;20.10;47.10;;;;;;4956131;28;20294;-71
2022/04/12 16:07:19;;;;;;;1.20;1.20;;;20.10;47.20;;;;;;4956704;29;20310;-72
2022/04/12 16:09:46;;;;;;;1.60;1.50;;;20.00;47.60;;;;;;4956086;29;20306;-72
2022/04/12 16:12:15;;;;;;;3.92;1.25;;;20.00;48.70;;;;;;4956322;29;20254;-71
2022/04/12 16:14:41;;;;;;;1.50;1.50;;;19.90;50.00;;;;;;4955876;29;20203;-71
2022/04/12 16:17:10;;;;;;;1.58;1.50;;;19.80;49.70;;;;;;4955748;29;20255;-71
2022/04/12 16:19:39;;;;;;;1.60;1.50;;;19.80;50.90;;;;;;4955733;29;20683;-71
2022/04/12 16:22:06;;;;;;;1.10;1.10;;;19.80;52.20;;;;;;4955283;29;20299;-72
2022/04/12 16:24:34;;;;;;;1.38;1.35;;;19.70;53.10;;;;;;4955901;29;20251;-72
2022/04/12 16:27:02;;;;;;;2.05;1.42;;;19.60;52.70;;;;;;4955725;29;20711;-72
2022/04/12 16:29:29;;;;;;;1.17;1.17;;;19.60;53.20;;;;;;4957578;29;20286;-72
2022/04/12 16:31:56;;;;;;;1.20;1.20;;;19.50;54.50;;;;;;4957299;28;20207;-72
2022/04/12 16:34:24;;;;;;;1.40;1.30;;;19.50;55.50;;;;;;4955561;29;20207;-72
2022/04/12 16:36:52;;;;;;;1.65;1.25;;;19.40;56.00;;;;;;4955481;29;20234;-72
2022/04/12 16:39:19;;;;;;;1.25;1.25;;;19.30;56.10;;;;;;4956728;28;20227;-71
2022/04/12 16:41:46;;;;;;;1.58;1.52;;;19.30;56.90;;;;;;4956090;29;20206;-71
2022/04/12 16:44:13;;;;;;;1.70;1.70;;;19.20;57.10;;;;;;4955706;29;20293;-71
2022/04/12 16:46:40;;;;;;;1.58;1.50;;;19.10;58.00;;;;;;4955395;29;20262;-70
2022/04/12 16:49:08;;;;;;;1.80;1.70;;;19.10;58.50;;;;;;4955161;29;20721;-70
2022/04/12 16:51:35;;;;;;;1.98;1.83;;;18.90;58.70;;;;;;4955284;29;20203;-70
2022/04/12 16:54:04;;;;;;;1.50;1.40;;;18.90;60.70;;;;;;4955616;29;20617;-70
2022/04/12 16:56:31;;;;;;;1.00;1.00;;;18.90;63.10;;;;;;4955744;29;20220;-69
2022/04/12 16:59:00;;;;;;;0.80;0.80;;;18.80;66.10;;;;;;4955172;28;20291;-70
2022/04/12 17:01:27;;;;;;;0.90;0.90;;;18.70;67.10;;;;;;4954981;28;20204;-70
2022/04/12 17:03:53;;;;;;;0.90;0.90;;;18.70;68.30;;;;;;4955394;29;20235;-67
2022/04/12 17:06:20;;;;;;;0.70;0.70;;;18.60;69.70;;;;;;4954913;29;20718;-67
2022/04/12 17:08:47;;;;;;;0.70;0.70;;;18.50;74.60;;;;;;4954821;29;20235;-67
2022/04/12 17:11:16;;;;;;;0.77;0.77;;;18.50;80.50;;;;;;4954896;29;20688;-68
2022/04/12 17:13:42;;;;;;;0.77;0.77;;;18.40;77.80;;;;;;4955058;29;20716;-68
2022/04/12 17:16:09;;;;;;;0.65;0.65;;;18.30;88.40;;;;;;4955178;29;20223;-68
2022/04/12 17:18:36;;;;;;;0.70;0.70;;;18.20;86.90;;;;;;4955169;29;20298;-67
2022/04/12 17:21:03;;;;;;;0.60;0.60;;;18.10;90.70;;;;;;4955128;29;20239;-67
2022/04/12 17:23:30;;;;;;;1.23;0.80;;;18.00;91.70;;;;;;4955081;29;20204;-67
2022/04/12 17:25:57;;;;;;;1.00;1.00;;;17.90;94.70;;;;;;4954646;29;20199;-67
2022/04/12 17:28:26;;;;;;;0.60;0.60;;;17.80;93.30;;;;;;4954704;29;20203;-67
2022/04/12 17:30:53;;;;;;;0.80;0.80;;;17.70;99.90;;;;;;4955227;29;20227;-66
2022/04/12 17:33:20;;;;;;;0.50;0.50;;;17.60;99.90;;;;;;4955187;29;20226;-66
2022/04/12 17:35:50;;;;;;;0.80;0.80;;;17.50;99.90;;;;;;4955232;29;20200;-66
2022/04/12 17:38:17;;;;;;;0.70;0.70;;;17.30;99.90;;;;;;4955067;29;20295;-66
2022/04/12 17:40:44;;;;;;;0.60;0.60;;;17.20;99.90;;;;;;4955068;29;20282;-66